Time;durP1;ratioP1;P1;durP2;ratioP2;P2;SDS_P1;SDS_P2;PMS_P1;PMS_P2;Temp;Humidity;BMP_temperature;BMP_pressure;BME280_temperature;BME280_humidity;BME280_pressure;Samples;Min_cycle;Max_cycle;Signal;HPM_P1;HPM_P2
2024/02/21 00:00:28;;;;;;;;;;;7.10;99.90;;;-146.41;100.00;57768.22;5061336;28;1931;-68
2024/02/21 00:02:55;;;;;;;;;;;7.10;99.90;;;-146.41;100.00;57768.22;5056580;28;1850;-68
2024/02/21 00:05:24;;;;;;;;;;;7.00;99.90;;;-146.41;100.00;57768.22;5077762;28;1864;-68
2024/02/21 00:07:51;;;;;;;;;;;7.00;99.90;;;-146.41;100.00;57768.22;5077766;28;1842;-68
2024/02/21 00:10:18;;;;;;;;;;;7.00;99.90;;;-146.41;100.00;57768.22;5075840;28;1991;-68
2024/02/21 00:12:45;;;;;;;;;;;7.00;99.90;;;-146.41;100.00;57768.22;5074744;28;1675;-67
2024/02/21 00:15:12;;;;;;;;;;;6.90;99.90;;;-146.41;100.00;57768.22;5074355;28;2186;-68
2024/02/21 00:17:39;;;;;;;;;;;7.00;99.90;;;-146.41;100.00;57768.22;5077497;28;1961;-68
2024/02/21 00:20:07;;;;;;;;;;;7.00;99.90;;;-146.41;100.00;57768.22;5075211;28;1682;-68
2024/02/21 00:22:34;;;;;;;;;;;7.00;99.90;;;-146.41;100.00;57768.22;5078082;28;1787;-68
2024/02/21 00:25:01;;;;;;;;;;;7.10;99.90;;;-146.41;100.00;57768.22;5083984;28;2027;-67
2024/02/21 00:27:28;;;;;;;;;;;7.00;99.90;;;-146.41;100.00;57768.22;5079167;28;1964;-68
2024/02/21 00:29:55;;;;;;;;;;;7.00;99.90;;;-146.41;100.00;57768.22;5062554;28;2243;-68
2024/02/21 00:32:21;;;;;;;;;;;7.10;99.90;;;-146.41;100.00;57768.22;5079803;28;1684;-68
2024/02/21 00:34:48;;;;;;;;;;;7.00;99.90;;;-146.41;100.00;57768.22;5046611;28;1694;-68
2024/02/21 00:37:15;;;;;;;;;;;7.00;99.90;;;-146.41;100.00;57768.22;5076705;28;1987;-68
2024/02/21 00:39:42;;;;;;;;;;;7.00;99.90;;;-146.41;100.00;57768.22;5062131;28;1685;-68
2024/02/21 00:42:09;;;;;;;;;;;7.00;99.90;;;-146.41;100.00;57768.22;5062069;28;1764;-68
2024/02/21 00:44:36;;;;;;;;;;;7.00;99.90;;;-146.41;100.00;57768.22;5077533;28;1903;-68
2024/02/21 00:47:03;;;;;;;;;;;7.00;99.90;;;-146.41;100.00;57768.22;5078591;28;1843;-67
2024/02/21 00:49:29;;;;;;;;;;;7.00;99.90;;;-146.41;100.00;57768.22;5063576;28;1808;-68
2024/02/21 00:51:56;;;;;;;;;;;6.90;99.90;;;-146.41;100.00;57768.22;5063642;28;1670;-68
2024/02/21 00:54:23;;;;;;;;;;;6.90;99.90;;;-146.41;100.00;57768.22;5079194;28;1895;-68
2024/02/21 00:56:50;;;;;;;;;;;6.90;99.90;;;-146.41;100.00;57768.22;5078456;28;1949;-68
2024/02/21 00:59:17;;;;;;;;;;;6.90;99.90;;;-146.41;100.00;57768.22;5078023;28;2073;-68
2024/02/21 01:01:43;;;;;;;;;;;6.80;99.90;;;-146.41;100.00;57768.22;5078751;28;1855;-68
2024/02/21 01:04:10;;;;;;;;;;;6.80;99.90;;;-146.41;100.00;57768.22;5077760;28;1808;-68
2024/02/21 01:06:37;;;;;;;;;;;6.80;99.90;;;-146.41;100.00;57768.22;5077698;28;1806;-68
2024/02/21 01:09:04;;;;;;;;;;;6.80;99.90;;;-146.41;100.00;57768.22;5057445;28;1782;-68
2024/02/21 01:11:31;;;;;;;;;;;6.70;99.90;;;-146.41;100.00;57768.22;5061292;28;1972;-68
2024/02/21 01:13:58;;;;;;;;;;;6.70;99.90;;;-146.41;100.00;57768.22;5057775;28;1858;-68
2024/02/21 01:16:25;;;;;;;;;;;6.60;99.90;;;-146.41;100.00;57768.22;5079178;28;1994;-68
2024/02/21 01:18:52;;;;;;;;;;;6.70;99.90;;;-146.41;100.00;57768.22;5075449;28;1973;-68
2024/02/21 01:21:20;;;;;;;;;;;6.60;99.90;;;-146.41;100.00;57768.22;5076894;28;1867;-68
2024/02/21 01:23:46;;;;;;;;;;;6.60;99.90;;;-146.41;100.00;57768.22;5061197;28;2104;-68
2024/02/21 01:26:15;;;;;;;;;;;6.60;99.90;;;-146.41;100.00;57768.22;5075159;28;1768;-68
2024/02/21 01:28:42;;;;;;;;;;;6.70;99.90;;;-146.41;100.00;57768.22;5046547;28;2091;-67
2024/02/21 01:31:09;;;;;;;;;;;6.60;99.90;;;-146.41;100.00;57768.22;5075282;28;2209;-68
2024/02/21 01:33:35;;;;;;;;;;;6.60;99.90;;;-146.41;100.00;57768.22;5059096;28;1658;-68
2024/02/21 01:36:03;;;;;;;;;;;6.60;99.90;;;-146.41;100.00;57768.22;5076683;28;1692;-67
2024/02/21 01:38:31;;;;;;;;;;;6.60;99.90;;;-146.41;100.00;57768.22;5076374;28;1906;-68
2024/02/21 01:40:58;;;;;;;;;;;6.60;99.90;;;-146.41;100.00;57768.22;5079324;28;1676;-67
2024/02/21 01:43:26;;;;;;;;;;;6.50;99.90;;;-146.41;100.00;57768.22;5075491;28;1689;-68
2024/02/21 01:45:54;;;;;;;;;;;6.50;99.90;;;-146.41;100.00;57768.22;5059266;28;1730;-68
2024/02/21 01:48:22;;;;;;;;;;;6.50;99.90;;;-146.41;100.00;57768.22;5072080;28;2272;-68
2024/02/21 01:50:49;;;;;;;;;;;6.40;99.90;;;-146.41;100.00;57768.22;5062794;28;1908;-67
2024/02/21 01:53:18;;;;;;;;;;;6.50;99.90;;;-146.41;100.00;57768.22;5075422;28;1684;-68
2024/02/21 01:55:45;;;;;;;;;;;6.40;99.90;;;-146.41;100.00;57768.22;5060870;28;2041;-68
2024/02/21 01:58:16;;;;;;;;;;;6.40;99.90;;;-146.41;100.00;57768.22;5077550;28;2017;-68
2024/02/21 02:00:44;;;;;;;;;;;6.40;99.90;;;-146.41;100.00;57768.22;5078344;28;1680;-68
2024/02/21 02:03:17;;;;;;;;;;;6.40;99.90;;;-146.41;100.00;57768.22;5073663;28;2115;-68
2024/02/21 02:05:48;;;;;;;;;;;6.40;99.90;;;-146.41;100.00;57768.22;5060101;28;1736;-68
2024/02/21 02:08:17;;;;;;;;;;;6.50;99.90;;;-146.41;100.00;57768.22;5075693;28;1673;-68
2024/02/21 02:10:44;;;;;;;;;;;6.50;99.90;;;-146.41;100.00;57768.22;5073362;28;1673;-68
2024/02/21 02:13:11;;;;;;;;;;;6.50;99.90;;;-146.41;100.00;57768.22;5076121;28;1740;-68
2024/02/21 02:15:42;;;;;;;;;;;6.50;99.90;;;-146.41;100.00;57768.22;5060191;28;1781;-68
2024/02/21 02:18:10;;;;;;;;;;;6.50;99.90;;;-146.41;100.00;57768.22;5064872;28;1907;-67
2024/02/21 02:20:37;;;;;;;;;;;6.50;99.90;;;-146.41;100.00;57768.22;5077402;28;1772;-68
2024/02/21 02:23:10;;;;;;;;;;;6.50;99.90;;;-146.41;100.00;57768.22;5084137;28;1642;-71
2024/02/21 02:25:38;;;;;;;;;;;6.50;99.90;;;-146.41;100.00;57768.22;5085013;28;2128;-68
2024/02/21 02:28:08;;;;;;;;;;;6.50;99.90;;;-146.41;100.00;57768.22;5082987;28;1693;-67
2024/02/21 02:30:36;;;;;;;;;;;6.50;99.90;;;-146.41;100.00;57768.22;5082153;28;1745;-68
2024/02/21 02:33:05;;;;;;;;;;;6.50;99.90;;;-146.41;100.00;57768.22;5080078;28;1681;-68
2024/02/21 02:35:35;;;;;;;;;;;6.50;99.90;;;-146.41;100.00;57768.22;5081468;28;1682;-67
2024/02/21 02:38:03;;;;;;;;;;;6.50;99.90;;;-146.41;100.00;57768.22;5080557;28;1914;-68
2024/02/21 02:40:31;;;;;;;;;;;6.50;99.90;;;-146.41;100.00;57768.22;5061390;28;1836;-68
2024/02/21 02:42:57;;;;;;;;;;;6.50;99.90;;;-146.41;100.00;57768.22;5063818;28;2054;-68
2024/02/21 02:45:26;;;;;;;;;;;6.40;99.90;;;-146.41;100.00;57768.22;5077532;28;1780;-68
2024/02/21 02:47:56;;;;;;;;;;;6.50;99.90;;;-146.41;100.00;57768.22;5076715;28;1675;-68
2024/02/21 02:50:24;;;;;;;;;;;6.50;99.90;;;-146.41;100.00;57768.22;5078320;28;1864;-68
2024/02/21 02:52:52;;;;;;;;;;;6.60;99.90;;;-146.41;100.00;57768.22;5063705;28;1681;-67
2024/02/21 02:55:19;;;;;;;;;;;6.60;99.90;;;-146.41;100.00;57768.22;5076034;28;1945;-68
2024/02/21 02:57:46;;;;;;;;;;;6.60;99.90;;;-146.41;100.00;57768.22;5078494;28;2057;-67
2024/02/21 03:00:14;;;;;;;;;;;6.60;99.90;;;-146.41;100.00;57768.22;5081745;28;1837;-67
2024/02/21 03:02:42;;;;;;;;;;;6.60;99.90;;;-146.41;100.00;57768.22;5062637;28;1653;-68
2024/02/21 03:05:14;;;;;;;;;;;6.60;99.90;;;-146.41;100.00;57768.22;5061683;28;2317;-68
2024/02/21 03:07:43;;;;;;;;;;;6.70;99.90;;;-146.41;100.00;57768.22;5076707;28;1856;-68
2024/02/21 03:10:10;;;;;;;;;;;6.70;99.90;;;-146.41;100.00;57768.22;5059965;28;1756;-68
2024/02/21 03:12:38;;;;;;;;;;;6.70;99.90;;;-146.41;100.00;57768.22;5078699;28;1700;-68
2024/02/21 03:15:06;;;;;;;;;;;6.80;99.90;;;-146.41;100.00;57768.22;5080987;28;1719;-68
2024/02/21 03:17:35;;;;;;;;;;;6.80;99.90;;;-146.41;100.00;57768.22;5077844;28;1930;-68
2024/02/21 03:20:09;;;;;;;;;;;6.70;99.90;;;-146.41;100.00;57768.22;5077689;28;1711;-68
2024/02/21 03:22:37;;;;;;;;;;;6.70;99.90;;;-146.41;100.00;57768.22;5076094;28;1800;-68
2024/02/21 03:25:04;;;;;;;;;;;6.70;99.90;;;-146.41;100.00;57768.22;5076798;28;1860;-68
2024/02/21 03:27:32;;;;;;;;;;;6.70;99.90;;;-146.41;100.00;57768.22;5078738;28;2160;-68
2024/02/21 03:29:58;;;;;;;;;;;6.70;99.90;;;-146.41;100.00;57768.22;5061652;28;1661;-67
2024/02/21 03:32:25;;;;;;;;;;;6.70;99.90;;;-146.41;100.00;57768.22;5061086;28;1892;-68
2024/02/21 03:34:52;;;;;;;;;;;6.60;99.90;;;-146.41;100.00;57768.22;5079244;28;1790;-68
2024/02/21 03:37:20;;;;;;;;;;;6.60;99.90;;;-146.41;100.00;57768.22;5075410;28;1771;-67
2024/02/21 03:39:47;;;;;;;;;;;6.60;99.90;;;-146.41;100.00;57768.22;5081533;28;1859;-68
2024/02/21 03:42:13;;;;;;;;;;;6.50;99.90;;;-146.41;100.00;57768.22;5078492;28;1740;-68
2024/02/21 03:44:40;;;;;;;;;;;6.50;99.90;;;-146.41;100.00;57768.22;5064297;28;1748;-67
2024/02/21 03:47:10;;;;;;;;;;;6.50;99.90;;;-146.41;100.00;57768.22;5066350;28;1735;-68
2024/02/21 03:49:37;;;;;;;;;;;6.60;99.90;;;-146.41;100.00;57768.22;5078891;28;1831;-68
2024/02/21 03:52:04;;;;;;;;;;;6.50;99.90;;;-146.41;100.00;57768.22;5081030;28;1920;-67
2024/02/21 03:54:31;;;;;;;;;;;6.50;99.90;;;-146.41;100.00;57768.22;5078794;28;1721;-68
2024/02/21 03:56:58;;;;;;;;;;;6.50;99.90;;;-146.41;100.00;57768.22;5075852;28;1688;-69
2024/02/21 03:59:25;;;;;;;;;;;6.50;99.90;;;-146.41;100.00;57768.22;5079542;28;1931;-67
2024/02/21 04:01:54;;;;;;;;;;;6.50;99.90;;;-146.41;100.00;57768.22;5078980;28;1684;-68
2024/02/21 04:04:21;;;;;;;;;;;6.50;99.90;;;-146.41;100.00;57768.22;5062094;28;1693;-68
2024/02/21 04:06:49;;;;;;;;;;;6.50;99.90;;;-146.41;100.00;57768.22;5061363;28;1861;-67
2024/02/21 04:09:16;;;;;;;;;;;6.40;99.90;;;-146.41;100.00;57768.22;5076549;28;1692;-68
2024/02/21 04:11:43;;;;;;;;;;;6.40;99.90;;;-146.41;100.00;57768.22;5077948;28;1911;-68
2024/02/21 04:14:11;;;;;;;;;;;6.40;99.90;;;-146.41;100.00;57768.22;5077031;28;1699;-68
2024/02/21 04:16:39;;;;;;;;;;;6.40;99.90;;;-146.41;100.00;57768.22;5078772;28;1229;-68
2024/02/21 04:19:06;;;;;;;;;;;6.50;99.90;;;-146.41;100.00;57768.22;5062405;28;1922;-68
2024/02/21 04:21:33;;;;;;;;;;;6.40;99.90;;;-146.41;100.00;57768.22;5078947;28;1691;-68
2024/02/21 04:24:01;;;;;;;;;;;6.40;99.90;;;-146.41;100.00;57768.22;5078915;28;1188;-68
2024/02/21 04:26:28;;;;;;;;;;;6.40;99.90;;;-146.41;100.00;57768.22;5079392;28;1222;-68
2024/02/21 04:28:55;;;;;;;;;;;6.30;99.90;;;-146.41;100.00;57768.22;5078230;28;1772;-67
2024/02/21 04:31:22;;;;;;;;;;;6.40;99.90;;;-146.41;100.00;57768.22;5080345;28;2528;-68
2024/02/21 04:33:49;;;;;;;;;;;6.40;99.90;;;-146.41;100.00;57768.22;5061515;28;1725;-68
2024/02/21 04:36:16;;;;;;;;;;;6.40;99.90;;;-146.41;100.00;57768.22;5075997;28;1944;-68
2024/02/21 04:38:43;;;;;;;;;;;6.40;99.90;;;-146.41;100.00;57768.22;5060369;28;2271;-68
2024/02/21 04:41:09;;;;;;;;;;;6.40;99.90;;;-146.41;100.00;57768.22;5077404;28;1715;-67
2024/02/21 04:43:36;;;;;;;;;;;6.40;99.90;;;-146.41;100.00;57768.22;5056992;28;1717;-67
2024/02/21 04:46:04;;;;;;;;;;;6.30;99.90;;;-146.41;100.00;57768.22;5077381;28;1776;-68
2024/02/21 04:48:31;;;;;;;;;;;6.30;99.90;;;-146.41;100.00;57768.22;5079018;28;1648;-68
2024/02/21 04:50:58;;;;;;;;;;;6.20;99.90;;;-146.41;100.00;57768.22;5076948;28;1712;-68
2024/02/21 04:53:24;;;;;;;;;;;6.20;99.90;;;-146.41;100.00;57768.22;5077726;28;1961;-68
2024/02/21 04:55:51;;;;;;;;;;;6.30;99.90;;;-146.41;100.00;57768.22;5060490;28;1905;-68
2024/02/21 04:58:18;;;;;;;;;;;6.20;99.90;;;-146.41;100.00;57768.22;5075199;28;1987;-68
2024/02/21 05:00:45;;;;;;;;;;;6.20;99.90;;;-146.41;100.00;57768.22;5060771;28;1923;-68
2024/02/21 05:03:12;;;;;;;;;;;6.30;99.90;;;-146.41;100.00;57768.22;5059284;28;2301;-68
2024/02/21 05:05:39;;;;;;;;;;;6.20;99.90;;;-146.41;100.00;57768.22;5059078;28;1874;-67
2024/02/21 05:08:06;;;;;;;;;;;6.20;99.90;;;-146.41;100.00;57768.22;5078750;28;2091;-68
2024/02/21 05:10:33;;;;;;;;;;;6.20;99.90;;;-146.41;100.00;57768.22;5073937;28;1907;-68
2024/02/21 05:13:00;;;;;;;;;;;6.20;99.90;;;-146.41;100.00;57768.22;5060463;28;1995;-68
2024/02/21 05:15:27;;;;;;;;;;;6.10;99.90;;;-146.41;100.00;57768.22;5076623;28;1672;-68
2024/02/21 05:17:54;;;;;;;;;;;6.20;99.90;;;-146.41;100.00;57768.22;5075980;28;2096;-67
2024/02/21 05:20:21;;;;;;;;;;;6.10;99.90;;;-146.41;100.00;57768.22;5062584;28;2100;-68
2024/02/21 05:22:48;;;;;;;;;;;6.20;99.90;;;-146.41;100.00;57768.22;5074834;28;1692;-68
2024/02/21 05:25:15;;;;;;;;;;;6.10;99.90;;;-146.41;100.00;57768.22;5057738;28;1684;-68
2024/02/21 05:27:42;;;;;;;;;;;6.10;99.90;;;-146.41;100.00;57768.22;5075862;28;1879;-68
2024/02/21 05:30:09;;;;;;;;;;;6.00;99.90;;;-146.41;100.00;57768.22;5074824;28;1673;-68
2024/02/21 05:32:36;;;;;;;;;;;6.00;99.90;;;-146.41;100.00;57768.22;5073628;28;1985;-68
2024/02/21 05:35:03;;;;;;;;;;;6.00;99.90;;;-146.41;100.00;57768.22;5078025;28;1717;-68
2024/02/21 05:37:30;;;;;;;;;;;6.00;99.90;;;-146.41;100.00;57768.22;5077462;28;1696;-67
2024/02/21 05:39:57;;;;;;;;;;;6.10;99.90;;;-146.41;100.00;57768.22;5076411;28;1910;-67
2024/02/21 05:42:24;;;;;;;;;;;6.10;99.90;;;-146.41;100.00;57768.22;5076658;28;1701;-68
2024/02/21 05:44:51;;;;;;;;;;;6.10;99.90;;;-146.41;100.00;57768.22;5026346;28;2108;-68
2024/02/21 05:47:20;;;;;;;;;;;6.10;99.90;;;-146.41;100.00;57768.22;5058427;28;1709;-67
2024/02/21 05:49:48;;;;;;;;;;;6.10;99.90;;;-146.41;100.00;57768.22;5075161;28;1704;-68
2024/02/21 05:52:15;;;;;;;;;;;6.10;99.90;;;-146.41;100.00;57768.22;5058851;28;1812;-67
2024/02/21 05:54:42;;;;;;;;;;;6.00;99.90;;;-146.41;100.00;57768.22;5076342;28;1672;-67
2024/02/21 05:57:09;;;;;;;;;;;6.00;99.90;;;-146.41;100.00;57768.22;5078770;28;1660;-67
2024/02/21 05:59:41;;;;;;;;;;;6.00;99.90;;;-146.41;100.00;57768.22;5042628;28;2082;-68
2024/02/21 06:02:08;;;;;;;;;;;6.10;99.90;;;-146.41;100.00;57768.22;5062387;28;1686;-67
2024/02/21 06:04:35;;;;;;;;;;;6.10;99.90;;;-146.41;100.00;57768.22;5082257;28;1684;-68
2024/02/21 06:07:02;;;;;;;;;;;6.00;99.90;;;-146.41;100.00;57768.22;5063915;28;1911;-68
2024/02/21 06:09:29;;;;;;;;;;;6.00;99.90;;;-146.41;100.00;57768.22;5062276;28;1733;-68
2024/02/21 06:11:56;;;;;;;;;;;6.00;99.90;;;-146.41;100.00;57768.22;5079045;28;1766;-68
2024/02/21 06:14:23;;;;;;;;;;;6.00;99.90;;;-146.41;100.00;57768.22;5060677;28;2119;-68
2024/02/21 06:16:49;;;;;;;;;;;6.00;99.90;;;-146.41;100.00;57768.22;5082859;28;2017;-68
2024/02/21 06:19:16;;;;;;;;;;;6.00;99.90;;;-146.41;100.00;57768.22;5079279;28;1918;-68
2024/02/21 06:21:44;;;;;;;;;;;6.00;99.90;;;-146.41;100.00;57768.22;5079956;28;1868;-68
2024/02/21 06:24:12;;;;;;;;;;;5.90;99.90;;;-146.41;100.00;57768.22;5065580;28;1685;-68
2024/02/21 06:26:40;;;;;;;;;;;5.90;99.90;;;-146.41;100.00;57768.22;5081994;28;1773;-68
2024/02/21 06:29:07;;;;;;;;;;;5.90;99.90;;;-146.41;100.00;57768.22;5077875;28;1926;-68
2024/02/21 06:31:35;;;;;;;;;;;5.90;99.90;;;-146.41;100.00;57768.22;5063610;28;1738;-67
2024/02/21 06:34:02;;;;;;;;;;;5.90;99.90;;;-146.41;100.00;57768.22;5076366;28;1668;-68
2024/02/21 06:36:29;;;;;;;;;;;5.90;99.90;;;-146.41;100.00;57768.22;5079370;28;1692;-68
2024/02/21 06:38:56;;;;;;;;;;;5.90;99.90;;;-146.41;100.00;57768.22;5077067;28;1902;-67
2024/02/21 06:41:23;;;;;;;;;;;5.90;99.90;;;-146.41;100.00;57768.22;5079711;28;1990;-68
2024/02/21 06:43:50;;;;;;;;;;;5.90;99.90;;;-146.41;100.00;57768.22;5080999;28;1777;-68
2024/02/21 06:46:28;;;;;;;;;;;5.90;99.90;;;-146.41;100.00;57768.22;5078886;28;1706;-68
2024/02/21 06:48:56;;;;;;;;;;;5.90;99.90;;;-146.41;100.00;57768.22;5062507;28;1729;-68
2024/02/21 06:51:27;;;;;;;;;;;5.90;99.90;;;-146.41;100.00;57768.22;5047268;28;2012;-68
2024/02/21 06:53:55;;;;;;;;;;;5.80;99.90;;;-146.41;100.00;57768.22;5080521;28;1744;-67
2024/02/21 06:56:26;;;;;;;;;;;5.90;99.90;;;-146.41;100.00;57768.22;5060170;28;1701;-68
2024/02/21 06:58:53;;;;;;;;;;;5.90;99.90;;;-146.41;100.00;57768.22;5078737;28;1992;-68
2024/02/21 07:01:21;;;;;;;;;;;5.80;99.90;;;-146.41;100.00;57768.22;5078893;28;1930;-68
2024/02/21 07:03:48;;;;;;;;;;;5.90;99.90;;;-146.41;100.00;57768.22;5074502;28;1835;-68
2024/02/21 07:06:14;;;;;;;;;;;5.90;99.90;;;-146.41;100.00;57768.22;5077707;28;1938;-67
2024/02/21 07:08:41;;;;;;;;;;;5.90;99.90;;;-146.41;100.00;57768.22;5054353;28;1922;-68
2024/02/21 07:11:08;;;;;;;;;;;5.90;99.90;;;-146.41;100.00;57768.22;5073521;28;1903;-67
2024/02/21 07:13:35;;;;;;;;;;;5.90;99.90;;;-146.41;100.00;57768.22;5073543;28;1734;-66
2024/02/21 07:16:02;;;;;;;;;;;5.90;99.90;;;-146.41;100.00;57768.22;5072776;28;1765;-66
2024/02/21 07:18:29;;;;;;;;;;;5.90;99.90;;;-146.41;100.00;57768.22;5072282;28;2048;-66
2024/02/21 07:20:56;;;;;;;;;;;6.00;99.90;;;-146.41;100.00;57768.22;5071370;28;1863;-66
2024/02/21 07:23:23;;;;;;;;;;;6.00;99.90;;;-146.41;100.00;57768.22;5070881;28;1629;-67
2024/02/21 07:25:50;;;;;;;;;;;6.00;99.90;;;-146.41;100.00;57768.22;5054277;28;1756;-67
2024/02/21 07:28:17;;;;;;;;;;;6.00;99.90;;;-146.41;100.00;57768.22;5070829;28;1650;-67
2024/02/21 07:30:44;;;;;;;;;;;5.90;99.90;;;-146.41;100.00;57768.22;5070890;28;2024;-67
2024/02/21 07:33:11;;;;;;;;;;;6.00;99.90;;;-146.41;100.00;57768.22;5072694;28;1679;-66
2024/02/21 07:35:40;;;;;;;;;;;6.00;99.90;;;-146.41;100.00;57768.22;5070685;28;1882;-66
2024/02/21 07:38:12;;;;;;;;;;;6.10;99.90;;;-146.41;100.00;57768.22;5073353;28;1675;-66
2024/02/21 07:40:39;;;;;;;;;;;6.10;99.90;;;-146.41;100.00;57768.22;5072484;28;2065;-66
2024/02/21 07:43:06;;;;;;;;;;;6.00;99.90;;;-146.41;100.00;57768.22;5069356;28;1695;-66
2024/02/21 07:45:32;;;;;;;;;;;6.00;99.90;;;-146.41;100.00;57768.22;5071566;28;2348;-67
2024/02/21 07:47:59;;;;;;;;;;;6.00;99.90;;;-146.41;100.00;57768.22;5072931;28;1659;-67
2024/02/21 07:50:26;;;;;;;;;;;6.00;99.90;;;-146.41;100.00;57768.22;5074341;28;1683;-67
2024/02/21 07:52:53;;;;;;;;;;;5.90;99.90;;;-146.41;100.00;57768.22;5071236;28;1659;-66
2024/02/21 07:55:20;;;;;;;;;;;6.00;99.90;;;-146.41;100.00;57768.22;5072601;28;1676;-67
2024/02/21 07:57:47;;;;;;;;;;;6.00;99.90;;;-146.41;100.00;57768.22;5053133;28;1981;-67
2024/02/21 08:00:19;;;;;;;;;;;5.90;99.90;;;-146.41;100.00;57768.22;5070780;28;1910;-67
2024/02/21 08:02:48;;;;;;;;;;;5.90;99.90;;;-146.41;100.00;57768.22;5068917;28;1702;-67
2024/02/21 08:05:15;;;;;;;;;;;6.10;99.90;;;-146.41;100.00;57768.22;5052262;28;1714;-67
2024/02/21 08:07:42;;;;;;;;;;;6.00;99.90;;;-146.41;100.00;57768.22;5073165;28;1709;-67
2024/02/21 08:10:08;;;;;;;;;;;6.10;99.90;;;-146.41;100.00;57768.22;5055928;28;2279;-68
2024/02/21 08:12:35;;;;;;;;;;;6.10;99.90;;;-146.41;100.00;57768.22;5071124;28;1624;-67
2024/02/21 08:15:08;;;;;;;;;;;6.20;99.90;;;-146.41;100.00;57768.22;5055141;28;1796;-66
2024/02/21 08:17:34;;;;;;;;;;;6.20;99.90;;;-146.41;100.00;57768.22;5045979;28;2051;-67
2024/02/21 08:20:02;;;;;;;;;;;6.30;99.90;;;-146.41;100.00;57768.22;5073363;28;1898;-67
2024/02/21 08:22:29;;;;;;;;;;;6.30;99.90;;;-146.41;100.00;57768.22;5058918;28;2151;-67
2024/02/21 08:24:56;;;;;;;;;;;6.20;99.90;;;-146.41;100.00;57768.22;5069968;28;1613;-67
2024/02/21 08:27:23;;;;;;;;;;;6.30;99.90;;;-146.41;100.00;57768.22;5056925;28;1822;-68
2024/02/21 08:29:50;;;;;;;;;;;6.40;99.90;;;-146.41;100.00;57768.22;5070480;28;1994;-67
2024/02/21 08:32:17;;;;;;;;;;;6.40;99.90;;;-146.41;100.00;57768.22;5070358;28;1872;-68
2024/02/21 08:34:44;;;;;;;;;;;6.40;99.90;;;-146.41;100.00;57768.22;5057170;28;1762;-67
2024/02/21 08:37:10;;;;;;;;;;;6.50;99.90;;;-146.41;100.00;57768.22;5068084;28;1775;-68
2024/02/21 08:39:37;;;;;;;;;;;6.50;99.90;;;-146.41;100.00;57768.22;5069375;28;2041;-67
2024/02/21 08:42:05;;;;;;;;;;;6.50;99.90;;;-146.41;100.00;57768.22;5068278;28;1706;-67
2024/02/21 08:44:31;;;;;;;;;;;6.40;99.90;;;-146.41;100.00;57768.22;5068658;28;1752;-67
2024/02/21 08:46:58;;;;;;;;;;;6.40;99.90;;;-146.41;100.00;57768.22;5071054;28;1664;-67
2024/02/21 08:49:28;;;;;;;;;;;6.50;99.90;;;-146.41;100.00;57768.22;5056856;28;1726;-67
2024/02/21 08:52:00;;;;;;;;;;;6.60;99.90;;;-146.41;100.00;57768.22;5053785;28;1850;-67
2024/02/21 08:54:27;;;;;;;;;;;6.60;99.90;;;-146.41;100.00;57768.22;5057319;28;2072;-68
2024/02/21 08:56:54;;;;;;;;;;;6.70;99.90;;;-146.41;100.00;57768.22;5070385;28;1675;-66
2024/02/21 08:59:21;;;;;;;;;;;6.80;99.90;;;-146.41;100.00;57768.22;5071478;28;1906;-68
2024/02/21 09:01:48;;;;;;;;;;;6.80;99.90;;;-146.41;100.00;57768.22;5052716;28;1674;-66
2024/02/21 09:04:15;;;;;;;;;;;6.80;99.90;;;-146.41;100.00;57768.22;5053125;28;1686;-67
2024/02/21 09:06:42;;;;;;;;;;;6.70;99.90;;;-146.41;100.00;57768.22;5073715;28;1673;-67
2024/02/21 09:09:09;;;;;;;;;;;6.80;99.90;;;-146.41;100.00;57768.22;5054267;28;1791;-67
2024/02/21 09:11:37;;;;;;;;;;;7.00;99.90;;;-146.41;100.00;57768.22;5057187;28;1735;-67
2024/02/21 09:14:04;;;;;;;;;;;6.90;99.90;;;-146.41;100.00;57768.22;5070236;28;1732;-67
2024/02/21 09:16:32;;;;;;;;;;;6.90;99.90;;;-146.41;100.00;57768.22;5068997;28;1704;-66
2024/02/21 09:18:59;;;;;;;;;;;7.00;99.90;;;-146.41;100.00;57768.22;5070414;28;1914;-67
2024/02/21 09:21:26;;;;;;;;;;;7.00;99.90;;;-146.41;100.00;57768.22;5068914;28;1709;-67
2024/02/21 09:23:53;;;;;;;;;;;6.80;99.90;;;-146.41;100.00;57768.22;5069482;28;1706;-67
2024/02/21 09:26:23;;;;;;;;;;;7.00;99.90;;;-146.41;100.00;57768.22;5059548;28;1780;-67
2024/02/21 09:28:51;;;;;;;;;;;7.00;99.90;;;-146.41;100.00;57768.22;5068047;28;1736;-67
2024/02/21 09:31:18;;;;;;;;;;;7.00;99.90;;;-146.41;100.00;57768.22;5072900;28;1371;-68
2024/02/21 09:33:45;;;;;;;;;;;7.10;99.90;;;-146.41;100.00;57768.22;5073346;28;1642;-67
2024/02/21 09:36:12;;;;;;;;;;;7.10;99.90;;;-146.41;100.00;57768.22;5071171;28;1685;-67
2024/02/21 09:38:40;;;;;;;;;;;6.90;99.90;;;-146.41;100.00;57768.22;5057896;28;1706;-67
2024/02/21 09:41:16;;;;;;;;;;;7.00;99.90;;;-146.41;100.00;57768.22;5076474;28;2001;-67
2024/02/21 09:43:47;;;;;;;;;;;7.00;99.90;;;-146.41;100.00;57768.22;5073428;28;1740;-67
2024/02/21 09:46:18;;;;;;;;;;;7.00;99.90;;;-146.41;100.00;57768.22;5055743;28;1793;-67
2024/02/21 09:49:13;;;;;;;;;;;7.10;99.90;;;-146.41;100.00;57768.22;5060359;28;1817;-67
2024/02/21 09:51:41;;;;;;;;;;;7.10;99.90;;;-146.41;100.00;57768.22;5064547;28;1889;-68
2024/02/21 09:54:08;;;;;;;;;;;7.30;99.90;;;-146.41;100.00;57768.22;5046267;28;1893;-67
2024/02/21 09:56:45;;;;;;;;;;;7.30;99.90;;;-146.41;100.00;57768.22;5058973;28;2032;-67
2024/02/21 09:59:12;;;;;;;;;;;7.10;99.90;;;-146.41;100.00;57768.22;5074961;28;1953;-67
2024/02/21 10:01:39;;;;;;;;;;;7.20;99.90;;;-146.41;100.00;57768.22;5044467;28;1811;-67
2024/02/21 10:04:06;;;;;;;;;;;7.00;99.90;;;-146.41;100.00;57768.22;5073236;28;1955;-67
2024/02/21 10:06:33;;;;;;;;;;;7.30;99.90;;;-146.41;100.00;57768.22;5058612;28;1805;-67
2024/02/21 10:09:00;;;;;;;;;;;7.40;99.90;;;-146.41;100.00;57768.22;5041455;28;1849;-68
2024/02/21 10:11:27;;;;;;;;;;;7.30;99.90;;;-146.41;100.00;57768.22;5074549;28;2139;-67
2024/02/21 10:14:05;;;;;;;;;;;7.30;99.90;;;-146.41;100.00;57768.22;5075186;28;1707;-67
2024/02/21 10:16:33;;;;;;;;;;;7.30;99.90;;;-146.41;100.00;57768.22;5080088;28;1779;-67
2024/02/21 10:19:00;;;;;;;;;;;7.30;99.90;;;-146.41;100.00;57768.22;5057018;28;1757;-67
2024/02/21 10:21:27;;;;;;;;;;;7.50;99.90;;;-146.41;100.00;57768.22;5075760;28;1910;-67
2024/02/21 10:23:53;;;;;;;;;;;7.50;99.90;;;-146.41;100.00;57768.22;5057232;28;1884;-67
2024/02/21 10:26:21;;;;;;;;;;;7.70;99.90;;;-146.41;100.00;57768.22;5079091;28;1743;-67
2024/02/21 10:28:51;;;;;;;;;;;7.90;99.90;;;-146.41;100.00;57768.22;5059025;28;1779;-68
2024/02/21 10:31:25;;;;;;;;;;;7.80;99.90;;;-146.41;100.00;57768.22;5065127;28;1706;-68
2024/02/21 10:34:02;;;;;;;;;;;7.80;99.90;;;-146.41;100.00;57768.22;5077884;28;1689;-67
2024/02/21 10:36:30;;;;;;;;;;;7.80;99.90;;;-146.41;100.00;57768.22;5080377;28;1705;-68
2024/02/21 10:38:57;;;;;;;;;;;7.80;99.90;;;-146.41;100.00;57768.22;5079379;28;1766;-68
2024/02/21 10:41:24;;;;;;;;;;;7.90;99.90;;;-146.41;100.00;57768.22;5078951;28;1987;-67
2024/02/21 10:43:54;;;;;;;;;;;8.00;99.90;;;-146.41;100.00;57768.22;5077298;28;1684;-68
2024/02/21 10:46:23;;;;;;;;;;;8.10;99.90;;;-146.41;100.00;57768.22;5061851;28;1713;-68
2024/02/21 10:49:20;;;;;;;;;;;8.20;99.90;;;-146.41;100.00;57768.22;5077330;28;1763;-68
2024/02/21 10:51:48;;;;;;;;;;;8.20;99.90;;;-146.41;100.00;57768.22;5057837;28;1718;-68
2024/02/21 10:54:40;;;;;;;;;;;8.20;99.90;;;-146.41;100.00;57768.22;5059007;28;1701;-68
2024/02/21 10:57:09;;;;;;;;;;;8.00;99.90;;;-146.41;100.00;57768.22;5058818;28;1956;-68
2024/02/21 10:59:37;;;;;;;;;;;8.20;99.90;;;-146.41;100.00;57768.22;5063978;28;1980;-67
2024/02/21 11:02:04;;;;;;;;;;;8.20;99.90;;;-146.41;100.00;57768.22;5048161;28;1834;-68
2024/02/21 11:04:36;;;;;;;;;;;8.30;99.90;;;-146.41;100.00;57768.22;5078462;28;1747;-68
2024/02/21 11:07:05;;;;;;;;;;;8.30;99.90;;;-146.41;100.00;57768.22;5064694;28;1726;-68
2024/02/21 11:09:37;;;;;;;;;;;8.30;99.90;;;-146.41;100.00;57768.22;5061355;28;1936;-67
2024/02/21 11:12:06;;;;;;;;;;;8.40;99.90;;;-146.41;100.00;57768.22;5078639;28;2057;-68